Time;durP1;ratioP1;P1;durP2;ratioP2;P2;SDS_P1;SDS_P2;PMS_P1;PMS_P2;Temp;Humidity;BMP_temperature;BMP_pressure;BME280_temperature;BME280_humidity;BME280_pressure;Samples;Min_cycle;Max_cycle;Signal;HPM_P1;HPM_P2
2023/04/14 00:01:44;;;;;;;3.07;2.87;;;;;;;;;;4963764;28;20535;-81
2023/04/14 00:04:10;;;;;;;3.67;2.60;;;;;;;;;;4965894;28;20528;-80
2023/04/14 00:06:36;;;;;;;6.10;2.87;;;;;;;;;;4963682;28;20539;-83
2023/04/14 00:09:03;;;;;;;7.07;2.90;;;;;;;;;;4963106;28;20441;-81
2023/04/14 00:11:29;;;;;;;4.10;3.77;;;;;;;;;;4962851;28;20477;-80
2023/04/14 00:13:56;;;;;;;4.43;3.80;;;;;;;;;;4946708;28;21249;-80
2023/04/14 00:16:22;;;;;;;12.37;11.50;;;;;;;;;;4962799;28;20500;-81
2023/04/14 00:18:48;;;;;;;7.67;7.10;;;;;;;;;;4963474;28;20434;-81
2023/04/14 00:21:14;;;;;;;7.37;6.77;;;;;;;;;;4962803;28;20773;-81
2023/04/14 00:23:40;;;;;;;5.40;5.00;;;;;;;;;;4958904;28;20453;-81
2023/04/14 00:26:06;;;;;;;3.40;3.30;;;;;;;;;;4964131;28;21156;-81
2023/04/14 00:28:32;;;;;;;4.30;2.80;;;;;;;;;;4963612;28;20483;-81
2023/04/14 00:30:58;;;;;;;7.00;4.80;;;;;;;;;;4964634;28;20960;-81
2023/04/14 00:33:24;;;;;;;4.50;4.10;;;;;;;;;;4963096;28;20449;-81
2023/04/14 00:35:51;;;;;;;3.75;3.55;;;;;;;;;;4963037;28;20460;-82
2023/04/14 00:38:17;;;;;;;2.63;2.43;;;;;;;;;;4963242;28;20206;-82
2023/04/14 00:40:43;;;;;;;4.20;2.90;;;;;;;;;;4963089;28;20779;-80
2023/04/14 00:43:09;;;;;;;10.37;5.40;;;;;;;;;;4963194;28;20248;-80
2023/04/14 00:45:42;;;;;;;4.90;3.83;;;;;;;;;;4963296;28;20445;-82
2023/04/14 00:48:09;;;;;;;4.37;4.10;;;;;;;;;;4965005;28;20486;-82
2023/04/14 00:50:35;;;;;;;5.80;5.40;;;;;;;;;;4963829;28;20953;-80
2023/04/14 00:53:01;;;;;;;5.50;4.17;;;;;;;;;;4961737;28;20444;-80
2023/04/14 00:55:27;;;;;;;4.60;4.17;;;;;;;;;;4963552;28;20456;-80
2023/04/14 00:57:54;;;;;;;3.80;3.60;;;;;;;;;;4962277;28;20444;-81
2023/04/14 01:00:20;;;;;;;4.70;4.03;;;;;;;;;;4963040;28;20868;-80
2023/04/14 01:02:46;;;;;;;3.70;3.40;;;;;;;;;;4961956;28;20449;-80
2023/04/14 01:05:12;;;;;;;3.80;3.60;;;;;;;;;;4965001;28;20472;-80
2023/04/14 01:07:39;;;;;;;3.47;3.17;;;;;;;;;;4960398;28;20476;-81
2023/04/14 01:10:06;;;;;;;2.93;2.83;;;;;;;;;;4962250;28;20449;-83
2023/04/14 01:12:50;;;;;;;6.43;3.00;;;;;;;;;;4962592;28;20793;-81
2023/04/14 01:15:35;;;;;;;5.10;2.70;;;;;;;;;;4965505;28;20791;-81
2023/04/14 01:18:10;;;;;;;3.70;3.40;;;;;;;;;;4962062;28;20484;-80
2023/04/14 01:21:03;;;;;;;4.03;2.95;;;;;;;;;;4962499;28;20436;-80
2023/04/14 01:23:33;;;;;;;3.10;2.90;;;;;;;;;;4960626;28;20233;-80
2023/04/14 01:26:19;;;;;;;4.10;3.07;;;;;;;;;;4986743;28;20444;-81
2023/04/14 01:29:03;;;;;;;3.60;3.50;;;;;;;;;;4979377;28;20799;-80
2023/04/14 01:31:30;;;;;;;3.00;2.67;;;;;;;;;;4966808;28;20444;-81
2023/04/14 01:34:14;;;;;;;2.80;2.60;;;;;;;;;;4964076;28;20525;-81
2023/04/14 01:36:42;;;;;;;3.43;3.10;;;;;;;;;;4963491;28;20441;-81
2023/04/14 01:39:11;;;;;;;2.50;2.37;;;;;;;;;;4964043;28;20544;-81
2023/04/14 01:41:38;;;;;;;3.73;2.73;;;;;;;;;;4964052;28;20528;-81
2023/04/14 01:44:05;;;;;;;5.37;3.47;;;;;;;;;;4963730;28;20477;-80
2023/04/14 01:46:34;;;;;;;3.47;3.27;;;;;;;;;;4961594;28;20525;-80
2023/04/14 01:49:00;;;;;;;3.65;3.50;;;;;;;;;;4962030;28;20444;-80
2023/04/14 01:51:27;;;;;;;4.57;4.10;;;;;;;;;;4961950;28;20205;-81
2023/04/14 01:53:54;;;;;;;4.77;3.80;;;;;;;;;;4962866;28;20512;-81
2023/04/14 01:56:20;;;;;;;13.27;12.13;;;;;;;;;;4961859;28;21171;-81
2023/04/14 01:58:47;;;;;;;10.47;9.63;;;;;;;;;;4961161;28;20449;-81
2023/04/14 02:01:15;;;;;;;5.77;5.47;;;;;;;;;;4961674;28;20425;-81
2023/04/14 02:03:42;;;;;;;7.15;6.63;;;;;;;;;;4961570;28;20464;-81
2023/04/14 02:06:10;;;;;;;4.27;3.90;;;;;;;;;;4961603;28;20233;-81
2023/04/14 02:08:36;;;;;;;4.97;3.75;;;;;;;;;;4962190;28;20993;-81
2023/04/14 02:11:03;;;;;;;4.83;4.20;;;;;;;;;;4962962;28;20178;-81
2023/04/14 02:13:30;;;;;;;6.80;6.17;;;;;;;;;;4962508;28;20476;-80
2023/04/14 02:15:57;;;;;;;8.23;5.47;;;;;;;;;;4962695;28;21103;-81
2023/04/14 02:18:23;;;;;;;7.90;5.87;;;;;;;;;;4961629;28;20448;-81
2023/04/14 02:20:51;;;;;;;6.83;6.00;;;;;;;;;;4961574;28;22749;-82
2023/04/14 02:23:17;;;;;;;4.80;4.17;;;;;;;;;;4961812;28;20472;-83
2023/04/14 02:25:52;;;;;;;7.13;4.97;;;;;;;;;;4964214;28;20463;-83
2023/04/14 02:28:19;;;;;;;5.67;5.37;;;;;;;;;;4964576;28;20492;-82
2023/04/14 02:30:47;;;;;;;15.03;8.77;;;;;;;;;;4965600;28;20441;-81
2023/04/14 02:33:16;;;;;;;7.53;6.57;;;;;;;;;;4964184;28;20531;-81
2023/04/14 02:35:44;;;;;;;6.23;5.63;;;;;;;;;;4966532;28;20496;-81
2023/04/14 02:38:13;;;;;;;6.67;6.20;;;;;;;;;;4967120;28;20495;-82
2023/04/14 02:40:41;;;;;;;8.93;6.57;;;;;;;;;;4968472;28;20445;-82
2023/04/14 02:43:10;;;;;;;5.00;4.90;;;;;;;;;;4968361;28;20200;-82
2023/04/14 02:45:37;;;;;;;3.57;3.47;;;;;;;;;;4974568;28;20210;-83
2023/04/14 02:48:06;;;;;;;3.57;3.20;;;;;;;;;;4973582;28;20479;-83
2023/04/14 02:50:33;;;;;;;4.17;3.80;;;;;;;;;;4973511;28;20441;-82
2023/04/14 02:53:00;;;;;;;3.30;3.10;;;;;;;;;;4974365;28;20448;-82
2023/04/14 02:55:26;;;;;;;5.93;3.87;;;;;;;;;;4975035;28;20508;-82
2023/04/14 02:57:53;;;;;;;3.70;3.50;;;;;;;;;;4974484;28;20448;-81
2023/04/14 03:00:20;;;;;;;7.10;3.43;;;;;;;;;;4976210;28;20439;-82
2023/04/14 03:02:46;;;;;;;5.28;4.55;;;;;;;;;;4975191;28;20524;-82
2023/04/14 03:05:13;;;;;;;6.07;4.18;;;;;;;;;;4974384;28;20280;-84
2023/04/14 03:07:42;;;;;;;6.80;6.33;;;;;;;;;;4974814;28;20205;-81
2023/04/14 03:10:09;;;;;;;3.70;3.50;;;;;;;;;;4975502;28;20448;-82
2023/04/14 03:12:36;;;;;;;4.35;3.83;;;;;;;;;;4978498;28;20453;-82
2023/04/14 03:15:02;;;;;;;4.40;3.92;;;;;;;;;;4977687;28;20193;-81
2023/04/14 03:17:29;;;;;;;5.45;5.15;;;;;;;;;;4976526;28;20281;-83
2023/04/14 03:19:59;;;;;;;5.35;5.00;;;;;;;;;;4978370;28;20198;-83
2023/04/14 03:22:26;;;;;;;5.90;4.17;;;;;;;;;;4976833;28;20734;-82
2023/04/14 03:24:57;;;;;;;6.22;4.93;;;;;;;;;;4976738;28;20452;-80
2023/04/14 03:27:28;;;;;;;4.47;4.28;;;;;;;;;;4975145;28;20224;-82
2023/04/14 03:29:56;;;;;;;4.18;4.07;;;;;;;;;;4985883;28;20216;-82
2023/04/14 03:32:22;;;;;;;3.50;2.97;;;;;;;;;;4991301;28;20233;-82
2023/04/14 03:34:52;;;;;;;6.13;2.90;;;;;;;;;;4982634;28;20447;-82
2023/04/14 03:37:22;;;;;;;3.10;2.35;;;;;;;;;;4978505;28;20444;-83
2023/04/14 03:39:52;;;;;;;4.83;3.30;;;;;;;;;;4971417;28;20197;-84
2023/04/14 03:42:23;;;;;;;2.60;2.50;;;;;;;;;;4968484;28;20443;-81
2023/04/14 03:44:53;;;;;;;3.97;3.50;;;;;;;;;;4971760;28;20434;-82
2023/04/14 03:47:20;;;;;;;5.13;3.60;;;;;;;;;;4970136;28;20714;-81
2023/04/14 03:49:48;;;;;;;3.45;3.25;;;;;;;;;;4961216;28;20446;-82
2023/04/14 03:52:19;;;;;;;3.93;3.27;;;;;;;;;;4963611;28;21118;-82
2023/04/14 03:54:47;;;;;;;6.13;3.13;;;;;;;;;;4966312;28;20459;-82
2023/04/14 03:57:16;;;;;;;6.90;5.47;;;;;;;;;;4965860;28;20879;-81
2023/04/14 03:59:43;;;;;;;10.37;3.70;;;;;;;;;;4966252;28;20992;-82
2023/04/14 04:02:10;;;;;;;3.88;3.67;;;;;;;;;;4966378;28;20445;-82
2023/04/14 04:04:36;;;;;;;3.67;3.47;;;;;;;;;;4967228;28;20198;-81
2023/04/14 04:07:02;;;;;;;7.07;3.60;;;;;;;;;;4960370;28;20474;-81
2023/04/14 04:09:29;;;;;;;8.93;3.40;;;;;;;;;;4964474;28;20178;-81
2023/04/14 04:12:00;;;;;;;6.13;3.60;;;;;;;;;;4963121;28;20203;-81
2023/04/14 04:14:28;;;;;;;7.45;3.90;;;;;;;;;;4968459;28;20506;-83
2023/04/14 04:16:55;;;;;;;7.07;3.73;;;;;;;;;;4962257;28;20214;-81
2023/04/14 04:19:21;;;;;;;4.10;3.83;;;;;;;;;;4968180;28;20766;-81
2023/04/14 04:21:52;;;;;;;5.13;3.83;;;;;;;;;;4963027;28;20723;-81
2023/04/14 04:24:20;;;;;;;3.53;3.33;;;;;;;;;;4965976;28;21010;-81
2023/04/14 04:26:47;;;;;;;6.00;4.93;;;;;;;;;;4962423;28;20276;-82
2023/04/14 04:29:13;;;;;;;4.45;3.92;;;;;;;;;;4949997;28;20427;-82
2023/04/14 04:31:39;;;;;;;5.70;4.03;;;;;;;;;;4963423;28;20567;-81
2023/04/14 04:34:07;;;;;;;6.10;3.58;;;;;;;;;;4968625;28;20182;-82
2023/04/14 04:36:34;;;;;;;5.70;3.87;;;;;;;;;;4964383;28;20198;-82
2023/04/14 04:39:02;;;;;;;3.90;3.70;;;;;;;;;;4967979;28;20413;-82
2023/04/14 04:41:29;;;;;;;7.25;3.47;;;;;;;;;;4963809;28;20204;-81
2023/04/14 04:43:55;;;;;;;7.93;3.53;;;;;;;;;;4969797;28;20276;-82
2023/04/14 04:46:36;;;;;;;10.80;8.33;;;;;;;;;;4964099;28;21069;-82
2023/04/14 04:49:02;;;;;;;4.57;4.10;;;;;;;;;;4972505;28;20430;-82
2023/04/14 04:51:28;;;;;;;6.57;4.43;;;;;;;;;;4962030;28;20491;-81
2023/04/14 04:53:54;;;;;;;8.17;3.43;;;;;;;;;;4952227;28;20180;-82
2023/04/14 04:56:20;;;;;;;10.45;6.65;;;;;;;;;;4967407;28;20871;-83
2023/04/14 04:58:47;;;;;;;6.78;6.35;;;;;;;;;;4965557;28;20330;-82
2023/04/14 05:01:14;;;;;;;3.83;3.43;;;;;;;;;;4964768;28;20251;-81
2023/04/14 05:03:41;;;;;;;4.23;3.93;;;;;;;;;;4964851;28;20422;-82
2023/04/14 05:06:07;;;;;;;6.83;4.00;;;;;;;;;;4962903;28;20436;-83
2023/04/14 05:08:33;;;;;;;3.97;3.78;;;;;;;;;;4958801;28;20419;-83
2023/04/14 05:10:59;;;;;;;5.93;4.00;;;;;;;;;;4962232;28;20183;-83
2023/04/14 05:13:26;;;;;;;5.13;4.00;;;;;;;;;;4961165;28;20512;-84
2023/04/14 05:15:52;;;;;;;8.65;4.20;;;;;;;;;;4964648;28;20723;-83
2023/04/14 05:18:18;;;;;;;5.17;4.50;;;;;;;;;;4972905;28;20220;-82
2023/04/14 05:20:44;;;;;;;5.00;4.70;;;;;;;;;;4962219;28;20445;-83
2023/04/14 05:23:12;;;;;;;5.97;5.25;;;;;;;;;;4955512;28;20956;-82
2023/04/14 05:25:38;;;;;;;5.33;3.53;;;;;;;;;;4969897;28;20789;-84
2023/04/14 05:28:04;;;;;;;6.37;3.90;;;;;;;;;;4963333;28;20501;-81
2023/04/14 05:30:30;;;;;;;4.93;4.53;;;;;;;;;;4954241;28;20604;-84
2023/04/14 05:32:56;;;;;;;4.37;4.20;;;;;;;;;;4956785;28;20545;-84
2023/04/14 05:35:24;;;;;;;7.57;3.90;;;;;;;;;;4979464;28;20540;-82
2023/04/14 05:37:50;;;;;;;6.20;4.90;;;;;;;;;;4962218;28;20500;-84
2023/04/14 05:40:16;;;;;;;5.57;5.17;;;;;;;;;;4985087;28;20437;-83
2023/04/14 05:42:42;;;;;;;5.65;4.90;;;;;;;;;;4969436;28;20434;-82
2023/04/14 05:45:09;;;;;;;6.80;6.20;;;;;;;;;;4971795;28;20198;-83
2023/04/14 05:47:35;;;;;;;6.15;5.40;;;;;;;;;;4964770;28;20205;-82
2023/04/14 05:50:03;;;;;;;7.63;5.72;;;;;;;;;;4967035;28;20260;-83
2023/04/14 05:52:29;;;;;;;6.73;4.83;;;;;;;;;;4962796;28;20288;-83
2023/04/14 05:54:55;;;;;;;5.47;5.17;;;;;;;;;;4965528;28;20433;-83
2023/04/14 05:57:21;;;;;;;6.00;4.57;;;;;;;;;;4959946;28;20480;-82
2023/04/14 05:59:47;;;;;;;7.13;5.37;;;;;;;;;;4954307;28;20446;-82
2023/04/14 06:02:13;;;;;;;5.60;3.93;;;;;;;;;;4971234;28;20437;-83
2023/04/14 06:04:39;;;;;;;5.17;4.60;;;;;;;;;;4979567;28;20531;-85
2023/04/14 06:07:05;;;;;;;6.33;3.93;;;;;;;;;;4971551;28;20441;-82
2023/04/14 06:09:31;;;;;;;5.53;3.77;;;;;;;;;;4956787;28;20480;-85
2023/04/14 06:11:57;;;;;;;4.83;4.17;;;;;;;;;;4956961;29;20772;-84
2023/04/14 06:14:23;;;;;;;3.10;2.90;;;;;;;;;;4972637;28;20453;-84
2023/04/14 06:16:49;;;;;;;5.53;3.50;;;;;;;;;;4976586;28;20474;-83
2023/04/14 06:19:17;;;;;;;3.33;3.13;;;;;;;;;;4978249;28;20540;-83
2023/04/14 06:21:44;;;;;;;9.30;3.37;;;;;;;;;;4968464;28;20439;-81
2023/04/14 06:24:10;;;;;;;5.60;5.17;;;;;;;;;;4981341;28;20454;-85
2023/04/14 06:26:36;;;;;;;7.63;3.93;;;;;;;;;;4983660;28;20444;-84
2023/04/14 06:29:04;;;;;;;7.23;4.57;;;;;;;;;;4977210;28;20438;-85
2023/04/14 06:31:30;;;;;;;5.30;4.00;;;;;;;;;;4978781;28;20434;-85
2023/04/14 06:33:56;;;;;;;3.93;3.63;;;;;;;;;;4967535;28;20544;-85
2023/04/14 06:36:22;;;;;;;5.07;4.70;;;;;;;;;;4969438;28;20437;-84
2023/04/14 06:38:48;;;;;;;5.90;5.40;;;;;;;;;;4982587;28;20489;-84
2023/04/14 06:41:14;;;;;;;6.50;5.57;;;;;;;;;;4964203;28;20972;-86
2023/04/14 06:43:41;;;;;;;5.40;4.90;;;;;;;;;;4970297;28;20425;-85
2023/04/14 06:46:10;;;;;;;5.13;4.90;;;;;;;;;;4987691;28;20438;-86
2023/04/14 06:48:36;;;;;;;7.50;6.73;;;;;;;;;;4976550;28;20444;-85
2023/04/14 06:51:02;;;;;;;5.20;4.80;;;;;;;;;;4962420;28;20449;-84
2023/04/14 06:53:28;;;;;;;6.23;5.70;;;;;;;;;;4977392;28;20531;-84
2023/04/14 06:56:01;;;;;;;5.23;4.73;;;;;;;;;;4955483;28;20441;-85
2023/04/14 06:58:27;;;;;;;5.20;4.70;;;;;;;;;;4972954;28;20461;-85
2023/04/14 07:00:55;;;;;;;7.37;4.77;;;;;;;;;;4964793;28;20831;-84
2023/04/14 07:03:20;;;;;;;4.77;4.37;;;;;;;;;;4963891;28;20430;-85
2023/04/14 07:05:46;;;;;;;4.83;4.50;;;;;;;;;;4941008;28;20454;-84
2023/04/14 07:08:12;;;;;;;5.60;5.20;;;;;;;;;;4970387;28;20444;-84
2023/04/14 07:10:39;;;;;;;6.63;4.77;;;;;;;;;;4970651;28;20444;-85
2023/04/14 07:13:05;;;;;;;5.40;4.87;;;;;;;;;;4961683;28;20460;-83
2023/04/14 07:15:31;;;;;;;5.00;4.60;;;;;;;;;;4965605;28;20557;-84
2023/04/14 07:17:57;;;;;;;5.90;5.17;;;;;;;;;;4973165;28;20932;-83
2023/04/14 07:20:23;;;;;;;7.17;4.57;;;;;;;;;;4953855;28;20450;-83
2023/04/14 07:22:49;;;;;;;4.03;3.53;;;;;;;;;;4973457;28;21246;-83
2023/04/14 07:25:15;;;;;;;5.80;4.07;;;;;;;;;;4971565;28;20497;-83
2023/04/14 07:27:41;;;;;;;4.47;4.07;;;;;;;;;;4973724;28;20437;-85
2023/04/14 07:30:07;;;;;;;4.10;3.77;;;;;;;;;;4971515;28;20437;-84
2023/04/14 07:32:34;;;;;;;4.00;3.60;;;;;;;;;;4966036;28;20448;-84
2023/04/14 07:35:00;;;;;;;3.70;3.43;;;;;;;;;;4969871;28;20449;-82
2023/04/14 07:37:26;;;;;;;3.60;3.40;;;;;;;;;;4974521;28;20464;-83
2023/04/14 07:39:52;;;;;;;6.00;5.50;;;;;;;;;;4961064;28;20817;-85
2023/04/14 07:42:18;;;;;;;5.50;4.30;;;;;;;;;;4974884;28;20451;-80
2023/04/14 07:44:44;;;;;;;4.00;3.70;;;;;;;;;;4970468;28;20443;-84
2023/04/14 07:47:10;;;;;;;4.77;4.30;;;;;;;;;;4973984;28;20933;-83
2023/04/14 07:49:36;;;;;;;4.40;4.00;;;;;;;;;;4970087;28;20433;-83
2023/04/14 07:52:02;;;;;;;3.87;3.63;;;;;;;;;;4966356;28;20449;-83
2023/04/14 07:54:28;;;;;;;8.43;3.57;;;;;;;;;;4983347;28;20446;-83
2023/04/14 07:56:56;;;;;;;4.20;3.90;;;;;;;;;;4976967;28;20992;-82
2023/04/14 07:59:22;;;;;;;3.50;3.20;;;;;;;;;;4968711;28;20585;-82
2023/04/14 08:01:48;;;;;;;4.77;3.30;;;;;;;;;;4965795;28;20687;-81
2023/04/14 08:04:14;;;;;;;6.57;3.40;;;;;;;;;;4958927;28;20532;-79
2023/04/14 08:06:40;;;;;;;5.63;3.50;;;;;;;;;;4966587;28;21029;-82
2023/04/14 08:09:06;;;;;;;4.00;3.67;;;;;;;;;;4971809;28;20477;-83
2023/04/14 08:11:32;;;;;;;3.63;3.43;;;;;;;;;;4967892;28;20437;-81
2023/04/14 08:13:58;;;;;;;5.30;4.33;;;;;;;;;;4967744;28;20434;-82
2023/04/14 08:16:25;;;;;;;5.80;3.87;;;;;;;;;;4971316;28;20410;-81
2023/04/14 08:18:51;;;;;;;4.73;4.53;;;;;;;;;;4969010;28;21344;-81
2023/04/14 08:21:17;;;;;;;5.33;4.20;;;;;;;;;;4965497;28;20502;-82
2023/04/14 08:23:43;;;;;;;6.70;4.60;;;;;;;;;;4957795;28;20464;-83
2023/04/14 08:26:10;;;;;;;5.25;4.60;;;;;;;;;;4973076;28;20401;-82
2023/04/14 08:28:36;;;;;;;5.30;3.80;;;;;;;;;;4950553;28;20194;-82
2023/04/14 08:31:02;;;;;;;4.57;3.30;;;;;;;;;;4971276;28;20424;-84
2023/04/14 08:33:28;;;;;;;5.00;3.47;;;;;;;;;;4982690;28;20433;-82
2023/04/14 08:35:54;;;;;;;4.37;2.93;;;;;;;;;;4970714;28;20456;-83
2023/04/14 08:38:20;;;;;;;5.07;2.47;;;;;;;;;;4968336;28;20524;-84
2023/04/14 08:40:47;;;;;;;2.40;2.20;;;;;;;;;;4962893;28;20438;-83
2023/04/14 08:43:13;;;;;;;4.00;2.50;;;;;;;;;;4956576;29;20430;-85
2023/04/14 08:45:39;;;;;;;4.13;2.60;;;;;;;;;;4978277;28;20455;-83
2023/04/14 08:48:06;;;;;;;9.10;3.87;;;;;;;;;;4969290;28;20521;-83
2023/04/14 08:50:38;;;;;;;3.80;3.47;;;;;;;;;;4962271;28;20450;-84
2023/04/14 08:53:08;;;;;;;2.23;2.13;;;;;;;;;;4977207;28;20788;-84
2023/04/14 08:55:36;;;;;;;4.73;2.73;;;;;;;;;;4961771;28;20442;-85
2023/04/14 08:58:05;;;;;;;3.57;2.30;;;;;;;;;;4963704;28;20484;-82
2023/04/14 09:00:31;;;;;;;6.70;2.60;;;;;;;;;;4963208;28;20676;-84
2023/04/14 09:02:57;;;;;;;3.00;2.67;;;;;;;;;;4976654;28;20461;-83
2023/04/14 09:05:23;;;;;;;6.83;2.27;;;;;;;;;;4980053;28;20443;-83
2023/04/14 09:07:49;;;;;;;5.90;2.30;;;;;;;;;;4939687;28;20465;-83
2023/04/14 09:10:16;;;;;;;2.57;2.10;;;;;;;;;;4955695;28;20513;-83
2023/04/14 09:12:43;;;;;;;3.13;2.30;;;;;;;;;;4977933;28;20433;-83
2023/04/14 09:15:10;;;;;;;4.33;2.40;;;;;;;;;;4973438;28;20436;-87
2023/04/14 09:17:36;;;;;;;4.70;2.23;;;;;;;;;;4982772;28;20496;-84
2023/04/14 09:20:02;;;;;;;2.25;2.15;;;;;;;;;;4981801;28;20396;-84
2023/04/14 09:22:28;;;;;;;2.50;1.80;;;;;;;;;;4976648;28;20190;-83
2023/04/14 09:24:54;;;;;;;3.55;2.42;;;;;;;;;;4973630;28;20405;-85
2023/04/14 09:27:20;;;;;;;2.20;2.00;;;;;;;;;;4981325;28;20424;-86
2023/04/14 09:29:47;;;;;;;2.90;1.83;;;;;;;;;;4976761;28;20189;-87
2023/04/14 09:32:14;;;;;;;2.73;1.63;;;;;;;;;;4964422;28;20449;-86
2023/04/14 09:34:49;;;;;;;3.70;2.10;;;;;;;;;;4984466;28;20410;-86
2023/04/14 09:37:15;;;;;;;2.30;2.10;;;;;;;;;;4974186;28;20415;-85
2023/04/14 09:39:47;;;;;;;4.43;2.07;;;;;;;;;;4972092;28;20394;-85
2023/04/14 09:42:13;;;;;;;2.80;2.20;;;;;;;;;;4975284;28;20393;-84
2023/04/14 09:44:55;;;;;;;3.28;2.30;;;;;;;;;;4980643;28;20524;-85
2023/04/14 09:47:22;;;;;;;1.70;1.60;;;;;;;;;;4968414;28;20604;-85
2023/04/14 09:49:56;;;;;;;2.70;2.20;;;;;;;;;;4981672;28;20406;-87
2023/04/14 09:52:22;;;;;;;3.03;2.73;;;;;;;;;;4960309;28;20220;-86
2023/04/14 09:54:55;;;;;;;6.10;2.03;;;;;;;;;;4965829;28;20445;-82
2023/04/14 09:57:25;;;;;;;4.15;3.08;;;;;;;;;;4971848;28;20412;-84
2023/04/14 09:59:51;;;;;;;4.10;2.70;;;;;;;;;;4978565;28;20459;-83
2023/04/14 10:02:17;;;;;;;2.70;2.50;;;;;;;;;;4967135;28;20233;-85
2023/04/14 10:04:45;;;;;;;2.07;2.00;;;;;;;;;;4992329;28;20417;-85
2023/04/14 10:07:11;;;;;;;3.37;1.87;;;;;;;;;;4977781;28;20456;-85
2023/04/14 10:09:39;;;;;;;13.60;5.63;;;;;;;;;;4986999;28;20461;-86
2023/04/14 10:12:17;;;;;;;2.40;1.90;;;;;;;;;;4963818;28;20429;-83
2023/04/14 10:14:44;;;;;;;2.00;1.60;;;;;;;;;;4971912;28;20456;-84
2023/04/14 10:17:10;;;;;;;3.70;2.40;;;;;;;;;;4947728;28;20529;-84
2023/04/14 10:19:37;;;;;;;3.00;2.10;;;;;;;;;;4955657;29;20442;-86
2023/04/14 10:22:04;;;;;;;7.03;3.73;;;;;;;;;;4952929;28;20567;-83
2023/04/14 10:24:30;;;;;;;1.83;1.73;;;;;;;;;;4971415;28;20473;-84
2023/04/14 10:26:56;;;;;;;2.27;1.50;;;;;;;;;;4980837;28;20490;-83
2023/04/14 10:29:23;;;;;;;3.70;2.07;;;;;;;;;;4963052;28;20441;-84
2023/04/14 10:31:54;;;;;;;6.13;2.37;;;;;;;;;;4954096;28;20469;-84
2023/04/14 10:34:23;;;;;;;2.30;2.00;;;;;;;;;;4987846;28;20402;-83
2023/04/14 10:36:49;;;;;;;2.03;2.00;;;;;;;;;;4973994;28;20544;-86
2023/04/14 10:39:20;;;;;;;1.87;1.67;;;;;;;;;;4972038;28;20716;-85
2023/04/14 10:41:47;;;;;;;3.53;1.80;;;;;;;;;;4970586;28;20440;-84
2023/04/14 10:44:39;;;;;;;4.50;2.53;;;;;;;;;;4970514;28;20493;-86
2023/04/14 10:47:06;;;;;;;1.90;1.60;;;;;;;;;;4965752;28;20472;-86
2023/04/14 10:49:37;;;;;;;2.40;1.80;;;;;;;;;;4972372;28;20658;-79
2023/04/14 10:52:12;;;;;;;5.23;2.23;;;;;;;;;;4947237;28;20457;-86
2023/04/14 10:54:53;;;;;;;2.20;1.87;;;;;;;;;;4970610;28;20476;-84
2023/04/14 10:57:23;;;;;;;3.47;3.17;;;;;;;;;;4969466;28;20433;-81
2023/04/14 10:59:53;;;;;;;2.00;1.93;;;;;;;;;;4951539;29;20973;-83
2023/04/14 11:02:30;;;;;;;2.50;2.40;;;;;;;;;;4967315;28;20478;-84
2023/04/14 11:05:00;;;;;;;3.00;1.97;;;;;;;;;;4977957;28;20400;-83
2023/04/14 11:07:28;;;;;;;1.60;1.50;;;;;;;;;;4968812;28;20480;-83
2023/04/14 11:10:00;;;;;;;4.43;1.70;;;;;;;;;;4979886;28;20409;-81
2023/04/14 11:12:26;;;;;;;3.50;1.70;;;;;;;;;;4970003;28;20461;-83
2023/04/14 11:14:56;;;;;;;3.40;2.00;;;;;;;;;;4968976;28;20913;-84
2023/04/14 11:17:22;;;;;;;4.77;1.93;;;;;;;;;;4972502;28;20914;-84
2023/04/14 11:19:52;;;;;;;3.03;1.53;;;;;;;;;;4976728;28;20489;-84
2023/04/14 11:22:41;;;;;;;2.83;2.67;;;;;;;;;;4968188;28;20448;-84
2023/04/14 11:25:08;;;;;;;1.40;1.30;;;;;;;;;;4959607;29;20430;-83
2023/04/14 11:27:34;;;;;;;2.80;2.00;;;;;;;;;;4952523;28;20461;-83
2023/04/14 11:30:00;;;;;;;3.83;3.67;;;;;;;;;;4963525;29;20426;-86
2023/04/14 11:32:27;;;;;;;6.23;2.27;;;;;;;;;;4956826;28;20625;-85
2023/04/14 11:34:53;;;;;;;6.57;2.10;;;;;;;;;;4963536;28;20488;-84
2023/04/14 11:37:19;;;;;;;2.00;1.60;;;;;;;;;;4958226;28;20442;-83
2023/04/14 11:39:47;;;;;;;1.93;1.83;;;;;;;;;;4942743;28;20444;-85
2023/04/14 11:42:13;;;;;;;1.93;1.83;;;;;;;;;;4955888;29;20426;-83
2023/04/14 11:44:39;;;;;;;3.07;1.70;;;;;;;;;;4958534;28;20417;-82
2023/04/14 11:47:05;;;;;;;1.97;1.87;;;;;;;;;;4950053;28;20481;-81
2023/04/14 11:49:35;;;;;;;2.00;1.67;;;;;;;;;;4942947;28;20548;-83
2023/04/14 11:52:05;;;;;;;2.17;1.53;;;;;;;;;;4952295;28;20442;-83
2023/04/14 11:54:38;;;;;;;1.37;1.37;;;;;;;;;;4954303;28;20759;-85
2023/04/14 11:57:11;;;;;;;1.70;1.60;;;;;;;;;;4959994;28;20814;-83
2023/04/14 11:59:45;;;;;;;2.00;1.70;;;;;;;;;;4955117;28;20517;-84
2023/04/14 12:02:16;;;;;;;1.07;1.00;;;;;;;;;;4958408;29;20477;-83
2023/04/14 12:04:45;;;;;;;1.77;1.13;;;;;;;;;;4955038;28;20518;-83
2023/04/14 12:07:15;;;;;;;1.50;1.50;;;;;;;;;;4963133;29;20458;-85
2023/04/14 12:09:43;;;;;;;2.83;2.10;;;;;;;;;;4939167;28;20468;-86
2023/04/14 12:12:13;;;;;;;3.43;1.20;;;;;;;;;;4949385;29;20454;-82
2023/04/14 12:14:48;;;;;;;1.57;1.50;;;;;;;;;;4965737;28;20431;-84
2023/04/14 12:17:15;;;;;;;2.13;1.60;;;;;;;;;;4972869;28;20457;-84
2023/04/14 12:19:42;;;;;;;1.53;1.00;;;;;;;;;;4946703;29;20508;-83
2023/04/14 12:22:09;;;;;;;3.17;1.80;;;;;;;;;;4955296;29;20446;-83
2023/04/14 12:24:35;;;;;;;1.60;1.60;;;;;;;;;;4937852;29;20617;-81
2023/04/14 12:27:03;;;;;;;3.00;1.50;;;;;;;;;;4957066;29;20434;-86
2023/04/14 12:29:30;;;;;;;2.40;2.20;;;;;;;;;;4956293;29;20458;-83
2023/04/14 12:31:57;;;;;;;2.07;1.97;;;;;;;;;;4941336;29;20484;-85
2023/04/14 12:34:26;;;;;;;3.30;2.07;;;;;;;;;;4960265;29;20483;-85
2023/04/14 12:36:52;;;;;;;3.67;2.10;;;;;;;;;;4970176;28;20587;-84
2023/04/14 12:39:20;;;;;;;2.40;2.30;;;;;;;;;;4949437;28;20973;-82
2023/04/14 12:41:47;;;;;;;5.40;1.77;;;;;;;;;;4953438;29;20497;-82
2023/04/14 12:44:14;;;;;;;1.50;1.40;;;;;;;;;;4936332;28;20475;-81
2023/04/14 12:46:51;;;;;;;1.90;1.80;;;;;;;;;;4947854;28;20448;-81
2023/04/14 12:49:30;;;;;;;4.40;2.40;;;;;;;;;;4944761;28;20999;-84
2023/04/14 12:51:56;;;;;;;2.07;1.90;;;;;;;;;;4924756;29;20547;-82
2023/04/14 12:54:22;;;;;;;2.17;2.07;;;;;;;;;;4942592;28;20454;-81
2023/04/14 12:56:48;;;;;;;1.70;1.60;;;;;;;;;;4944269;29;20534;-82
2023/04/14 12:59:14;;;;;;;2.20;1.80;;;;;;;;;;4944443;28;20414;-83
2023/04/14 13:01:40;;;;;;;2.70;1.83;;;;;;;;;;4950047;28;20442;-82
2023/04/14 13:04:06;;;;;;;1.47;1.33;;;;;;;;;;4932234;28;20434;-80
2023/04/14 13:06:32;;;;;;;1.67;1.60;;;;;;;;;;4952480;28;20457;-82
2023/04/14 13:08:59;;;;;;;5.40;1.93;;;;;;;;;;4951525;28;20465;-83
2023/04/14 13:11:25;;;;;;;2.13;1.93;;;;;;;;;;4948738;29;20420;-84
2023/04/14 13:13:55;;;;;;;1.90;1.80;;;;;;;;;;4940516;29;20818;-83
2023/04/14 13:16:21;;;;;;;2.83;1.60;;;;;;;;;;4956551;28;20450;-84
2023/04/14 13:18:47;;;;;;;3.10;1.23;;;;;;;;;;4952084;29;20435;-82
2023/04/14 13:21:13;;;;;;;1.40;1.20;;;;;;;;;;4925871;29;20462;-85
2023/04/14 13:23:40;;;;;;;1.10;1.10;;;;;;;;;;4950640;28;20512;-84
2023/04/14 13:26:06;;;;;;;1.37;1.30;;;;;;;;;;4956469;28;20442;-84
2023/04/14 13:28:32;;;;;;;1.77;1.10;;;;;;;;;;4956677;28;21216;-84
2023/04/14 13:30:58;;;;;;;1.27;1.17;;;;;;;;;;4949262;28;20449;-83
2023/04/14 13:33:25;;;;;;;1.13;1.07;;;;;;;;;;4957411;28;20961;-85
2023/04/14 13:35:52;;;;;;;1.40;1.20;;;;;;;;;;4956324;28;20441;-83
2023/04/14 13:38:18;;;;;;;1.03;1.03;;;;;;;;;;4954410;29;20461;-82
2023/04/14 13:40:44;;;;;;;1.50;1.40;;;;;;;;;;4958337;28;20438;-82
2023/04/14 13:43:15;;;;;;;2.00;1.10;;;;;;;;;;4956902;29;20501;-83
2023/04/14 13:45:41;;;;;;;1.43;1.33;;;;;;;;;;4930474;29;20458;-85
2023/04/14 13:48:07;;;;;;;1.40;1.40;;;;;;;;;;4966674;28;20498;-84
2023/04/14 13:50:33;;;;;;;2.53;2.27;;;;;;;;;;4952876;28;20454;-85
2023/04/14 13:52:59;;;;;;;1.50;1.40;;;;;;;;;;4955072;29;20438;-82
2023/04/14 13:55:25;;;;;;;1.70;1.60;;;;;;;;;;4949953;29;20501;-84
2023/04/14 13:57:51;;;;;;;1.20;1.20;;;;;;;;;;4958756;29;20771;-83
2023/04/14 14:00:17;;;;;;;2.87;1.60;;;;;;;;;;4945762;29;20466;-84
2023/04/14 14:02:43;;;;;;;1.07;1.07;;;;;;;;;;4969910;28;20544;-83
2023/04/14 14:05:10;;;;;;;1.50;1.50;;;;;;;;;;4960306;28;20512;-84
2023/04/14 14:07:36;;;;;;;1.10;1.10;;;;;;;;;;4959506;28;20612;-83
2023/04/14 14:10:03;;;;;;;1.50;1.40;;;;;;;;;;4938511;28;20466;-83
2023/04/14 14:12:31;;;;;;;1.30;1.20;;;;;;;;;;4968511;28;20445;-82
2023/04/14 14:14:57;;;;;;;2.33;1.10;;;;;;;;;;4958869;28;20438;-83
2023/04/14 14:17:23;;;;;;;1.63;1.53;;;;;;;;;;4956161;28;20481;-83
2023/04/14 14:19:49;;;;;;;1.60;1.30;;;;;;;;;;4958833;28;20996;-84
2023/04/14 14:22:15;;;;;;;1.80;1.07;;;;;;;;;;4951119;29;20418;-82
2023/04/14 14:24:41;;;;;;;1.17;1.10;;;;;;;;;;4967627;28;20446;-83
2023/04/14 14:27:07;;;;;;;0.93;0.93;;;;;;;;;;4993864;28;20465;-85
2023/04/14 14:29:34;;;;;;;1.40;1.30;;;;;;;;;;4963660;29;20983;-83
2023/04/14 14:32:00;;;;;;;1.40;1.30;;;;;;;;;;4982123;28;20803;-84
2023/04/14 14:34:26;;;;;;;1.63;1.33;;;;;;;;;;4965132;28;20442;-82
2023/04/14 14:36:53;;;;;;;1.63;1.40;;;;;;;;;;4972183;28;20453;-83
2023/04/14 14:39:19;;;;;;;1.13;1.10;;;;;;;;;;4968559;28;20589;-85
2023/04/14 14:41:45;;;;;;;1.17;1.17;;;;;;;;;;4976066;28;20532;-81
2023/04/14 14:44:11;;;;;;;1.57;1.43;;;;;;;;;;4961268;28;20506;-84
2023/04/14 14:46:38;;;;;;;1.13;1.03;;;;;;;;;;4968796;28;20460;-82